createdAt,value
2017-09-04T00:01:25.154Z,97.10
2017-09-04T00:03:52.588Z,97.00
2017-09-04T00:06:20.079Z,96.80
2017-09-04T00:08:47.512Z,96.80
2017-09-04T00:11:14.969Z,96.80
2017-09-04T00:13:42.423Z,96.80
2017-09-04T00:16:09.883Z,96.80
2017-09-04T00:18:37.359Z,96.70
2017-09-04T00:21:05.259Z,97.00
2017-09-04T00:23:32.702Z,96.90
2017-09-04T00:26:00.212Z,97.30
2017-09-04T00:28:27.684Z,97.30
2017-09-04T00:30:55.123Z,97.30
2017-09-04T00:33:22.586Z,97.30
2017-09-04T00:35:50.028Z,97.20
2017-09-04T00:38:17.498Z,97.20
2017-09-04T00:40:44.945Z,97.30
2017-09-04T00:43:12.387Z,97.60
2017-09-04T00:45:39.839Z,97.80
2017-09-04T00:48:07.283Z,97.70
2017-09-04T00:50:34.747Z,97.80
2017-09-04T00:53:02.223Z,98.00
2017-09-04T00:55:29.663Z,97.90
2017-09-04T00:57:57.130Z,97.70
2017-09-04T01:00:24.567Z,98.00
2017-09-04T01:02:52.068Z,98.20
2017-09-04T01:05:19.530Z,98.10
2017-09-04T01:07:46.971Z,98.00
2017-09-04T01:10:14.428Z,98.10
2017-09-04T01:12:41.868Z,97.90
2017-09-04T01:15:09.334Z,97.90
2017-09-04T01:17:36.783Z,97.80
2017-09-04T01:20:04.223Z,98.00
2017-09-04T01:22:31.680Z,98.00
2017-09-04T01:24:59.136Z,98.20
2017-09-04T01:27:26.600Z,98.00
2017-09-04T01:29:54.149Z,98.20
2017-09-04T01:32:21.612Z,98.00
2017-09-04T01:34:49.051Z,98.10
2017-09-04T01:37:16.528Z,98.10
2017-09-04T01:39:43.982Z,98.30
2017-09-04T01:42:11.419Z,98.40
2017-09-04T01:44:38.875Z,98.40
2017-09-04T01:47:06.320Z,98.20
2017-09-04T01:49:33.785Z,98.10
2017-09-04T01:52:01.223Z,97.90
2017-09-04T01:54:28.728Z,98.10
2017-09-04T01:56:56.224Z,98.00
2017-09-04T01:59:23.675Z,98.20
2017-09-04T02:01:51.131Z,98.40
2017-09-04T02:04:18.579Z,98.20
2017-09-04T02:06:46.070Z,98.00
2017-09-04T02:09:13.528Z,98.20
2017-09-04T02:11:40.971Z,98.30
2017-09-04T02:14:08.447Z,98.20
2017-09-04T02:16:35.890Z,98.20
2017-09-04T02:19:03.338Z,98.50
2017-09-04T02:21:31.223Z,98.40
2017-09-04T02:23:58.711Z,98.50
2017-09-04T02:26:27.044Z,99.00
2017-09-04T02:28:54.494Z,99.00
2017-09-04T02:31:21.955Z,98.90
2017-09-04T02:33:49.395Z,99.00
2017-09-04T02:36:16.852Z,99.00
2017-09-04T02:38:44.307Z,99.10
2017-09-04T02:41:11.783Z,98.80
2017-09-04T02:43:39.223Z,98.70
2017-09-04T02:46:06.691Z,98.60
2017-09-04T02:48:34.136Z,98.60
2017-09-04T02:51:01.596Z,98.30
2017-09-04T02:53:29.072Z,98.50
2017-09-04T02:55:56.491Z,98.60
2017-09-04T02:58:23.948Z,98.50
2017-09-04T03:00:51.402Z,98.30
2017-09-04T03:03:18.847Z,98.40
2017-09-04T03:05:46.319Z,98.40
2017-09-04T03:08:14.572Z,98.40
2017-09-04T03:10:42.051Z,98.40
2017-09-04T03:13:09.511Z,98.40
2017-09-04T03:15:36.956Z,98.30
2017-09-04T03:18:04.424Z,98.30
2017-09-04T03:20:31.859Z,98.40
2017-09-04T03:22:59.373Z,98.40
2017-09-04T03:25:26.817Z,98.40
2017-09-04T03:27:54.292Z,98.60
2017-09-04T03:30:22.273Z,98.60
2017-09-04T03:32:49.723Z,98.80
2017-09-04T03:35:17.173Z,98.90
2017-09-04T03:37:44.625Z,98.90
2017-09-04T03:40:12.206Z,99.00
2017-09-04T03:42:39.651Z,99.00
2017-09-04T03:45:07.131Z,99.00
2017-09-04T03:47:34.580Z,99.00
2017-09-04T03:50:02.006Z,99.00
2017-09-04T03:52:29.527Z,99.00
2017-09-04T03:54:57.018Z,99.40
2017-09-04T03:57:24.491Z,99.40
2017-09-04T03:59:51.952Z,99.20
2017-09-04T04:02:19.407Z,99.00
2017-09-04T04:04:46.886Z,98.90
2017-09-04T04:07:14.343Z,99.10
2017-09-04T04:09:41.779Z,99.10
2017-09-04T04:12:09.244Z,99.20
2017-09-04T04:14:36.700Z,99.30
2017-09-04T04:17:04.157Z,99.40
2017-09-04T04:19:31.613Z,99.20
2017-09-04T04:21:59.067Z,99.30
2017-09-04T04:24:26.531Z,99.50
2017-09-04T04:26:53.983Z,99.50
2017-09-04T04:29:21.446Z,99.40
2017-09-04T04:31:48.907Z,99.40
2017-09-04T04:34:16.383Z,99.40
2017-09-04T04:36:43.828Z,99.50
2017-09-04T04:39:11.272Z,99.50
2017-09-04T04:41:38.803Z,99.20
2017-09-04T04:44:06.247Z,98.80
2017-09-04T04:46:33.708Z,99.10
2017-09-04T04:49:01.140Z,98.90
2017-09-04T04:51:28.591Z,98.70
2017-09-04T04:53:57.219Z,98.60
2017-09-04T04:56:24.699Z,98.50
2017-09-04T04:58:52.139Z,98.50
2017-09-04T05:01:19.592Z,98.40
2017-09-04T05:03:47.063Z,98.30
2017-09-04T05:06:14.496Z,98.40
2017-09-04T05:08:41.954Z,98.80
2017-09-04T05:11:09.414Z,98.90
2017-09-04T05:13:36.951Z,98.50
2017-09-04T05:16:04.452Z,98.60
2017-09-04T05:18:31.895Z,98.80
2017-09-04T05:20:59.356Z,99.20
2017-09-04T05:23:27.575Z,98.50
2017-09-04T05:25:55.035Z,98.50
2017-09-04T05:28:22.475Z,98.60
2017-09-04T05:30:49.927Z,98.50
2017-09-04T05:33:17.385Z,98.60
2017-09-04T05:35:44.827Z,98.70
2017-09-04T05:38:12.296Z,97.90
2017-09-04T05:40:39.729Z,96.60
2017-09-04T05:43:07.159Z,95.60
2017-09-04T05:45:34.668Z,94.50
2017-09-04T05:48:02.106Z,93.60
2017-09-04T05:50:29.536Z,93.00
2017-09-04T05:52:56.989Z,92.90
2017-09-04T05:55:24.452Z,93.30
2017-09-04T05:57:51.982Z,93.60
2017-09-04T06:00:19.424Z,93.50
2017-09-04T06:02:46.882Z,93.30
2017-09-04T06:05:14.339Z,93.40
2017-09-04T06:07:41.787Z,93.60
2017-09-04T06:10:09.228Z,94.30
2017-09-04T06:12:36.682Z,94.70
2017-09-04T06:15:04.148Z,95.20
2017-09-04T06:17:31.599Z,95.20
2017-09-04T06:19:59.074Z,95.50
2017-09-04T06:22:27.323Z,95.50
2017-09-04T06:24:54.786Z,95.50
2017-09-04T06:27:22.233Z,95.60
2017-09-04T06:29:49.697Z,95.20
2017-09-04T06:32:17.123Z,95.20
2017-09-04T06:34:44.638Z,95.00
2017-09-04T06:37:12.109Z,94.80
2017-09-04T06:39:39.548Z,94.50
2017-09-04T06:42:07.019Z,94.30
2017-09-04T06:44:34.463Z,94.40
2017-09-04T06:47:01.904Z,94.50
2017-09-04T06:49:29.367Z,94.80
2017-09-04T06:51:56.819Z,95.00
2017-09-04T06:54:24.300Z,94.60
2017-09-04T06:56:51.750Z,94.30
2017-09-04T06:59:19.199Z,94.20
2017-09-04T07:01:46.635Z,93.90
2017-09-04T07:04:14.162Z,94.90
2017-09-04T07:06:41.599Z,93.70
2017-09-04T07:09:09.055Z,93.50
2017-09-04T07:11:36.517Z,92.80
2017-09-04T07:14:03.960Z,91.40
2017-09-04T07:16:32.186Z,91.00
2017-09-04T07:18:59.612Z,91.00
2017-09-04T07:21:27.065Z,91.70
2017-09-04T07:23:54.495Z,91.70
2017-09-04T07:26:21.949Z,91.20
2017-09-04T07:28:49.404Z,91.70
2017-09-04T07:31:16.851Z,91.20
2017-09-04T07:33:44.343Z,91.00
2017-09-04T07:36:11.809Z,90.70
2017-09-04T07:38:39.243Z,90.90
2017-09-04T07:41:06.722Z,90.30
2017-09-04T07:43:34.144Z,90.00
2017-09-04T07:46:01.583Z,89.20
2017-09-04T07:48:29.041Z,88.20
2017-09-04T07:50:56.492Z,89.40
2017-09-04T07:53:23.948Z,90.60
2017-09-04T07:55:51.411Z,89.20
2017-09-04T07:58:18.868Z,88.00
2017-09-04T08:00:46.314Z,89.00
2017-09-04T08:03:13.785Z,86.10
2017-09-04T08:05:41.229Z,82.10
2017-09-04T08:08:08.701Z,80.10
2017-09-04T08:10:36.137Z,82.80
2017-09-04T08:13:04.542Z,82.20
2017-09-04T08:15:32.011Z,80.90
2017-09-04T08:17:59.458Z,81.00
2017-09-04T08:20:26.926Z,82.70
2017-09-04T08:22:54.356Z,79.30
2017-09-04T08:25:21.808Z,69.90
2017-09-04T08:27:49.255Z,60.80
2017-09-04T08:30:16.694Z,58.60
2017-09-04T08:32:44.167Z,56.10
2017-09-04T08:35:11.614Z,58.50
2017-09-04T08:37:39.043Z,58.90
2017-09-04T08:40:06.512Z,58.80
2017-09-04T08:42:34.786Z,58.20
2017-09-04T08:45:02.250Z,57.90
2017-09-04T08:47:29.693Z,58.00
2017-09-04T08:49:57.138Z,56.60
2017-09-04T08:52:24.597Z,56.70
2017-09-04T08:54:52.103Z,52.80
2017-09-04T08:57:19.610Z,50.60
2017-09-04T08:59:47.096Z,48.20
2017-09-04T09:02:14.560Z,49.00
2017-09-04T09:04:42.084Z,48.60
2017-09-04T09:07:09.532Z,48.80
2017-09-04T09:09:36.997Z,50.60
2017-09-04T09:12:04.423Z,49.20
2017-09-04T09:14:31.883Z,46.60
2017-09-04T09:16:59.365Z,44.70
2017-09-04T09:19:26.841Z,48.20
2017-09-04T09:21:54.284Z,49.30
2017-09-04T09:24:21.728Z,50.20
2017-09-04T09:26:49.169Z,47.30
2017-09-04T09:29:16.647Z,45.60
2017-09-04T09:31:44.101Z,45.20
2017-09-04T09:34:11.532Z,48.20
2017-09-04T09:36:38.967Z,45.60
2017-09-04T09:39:10.359Z,44.40
2017-09-04T09:41:37.780Z,46.40
2017-09-04T09:44:05.232Z,49.40
2017-09-04T09:46:32.674Z,50.50
2017-09-04T09:49:00.133Z,48.60
2017-09-04T09:51:27.581Z,48.90
2017-09-04T09:53:55.096Z,50.20
2017-09-04T09:56:22.638Z,49.10
2017-09-04T09:58:50.088Z,45.50
2017-09-04T10:01:17.529Z,43.70
2017-09-04T10:03:44.999Z,43.00
2017-09-04T10:06:12.453Z,43.20
2017-09-04T10:08:39.912Z,42.20
2017-09-04T10:11:07.380Z,41.20
2017-09-04T10:13:34.873Z,39.00
2017-09-04T10:16:02.288Z,39.10
2017-09-04T10:18:29.739Z,40.30
2017-09-04T10:20:57.181Z,41.00
2017-09-04T10:23:24.633Z,39.80
2017-09-04T10:25:52.072Z,40.40
2017-09-04T10:28:19.535Z,40.20
2017-09-04T10:30:47.030Z,42.40
2017-09-04T10:33:14.500Z,43.60
2017-09-04T10:35:41.968Z,44.10
2017-09-04T10:38:09.383Z,44.00
2017-09-04T10:40:36.860Z,44.00
2017-09-04T10:43:04.306Z,44.20
2017-09-04T10:45:31.797Z,46.60
2017-09-04T10:48:00.156Z,44.40
2017-09-04T10:50:27.605Z,46.00
2017-09-04T10:52:55.075Z,46.10
2017-09-04T10:55:22.527Z,47.00
2017-09-04T10:57:49.983Z,45.20
2017-09-04T11:00:17.456Z,43.90
2017-09-04T11:02:44.881Z,43.20
2017-09-04T11:05:13.113Z,43.80
2017-09-04T11:07:40.560Z,43.80
2017-09-04T11:10:08.017Z,44.40
2017-09-04T11:12:35.460Z,44.20
2017-09-04T11:15:02.913Z,44.80
2017-09-04T11:17:30.363Z,45.50
2017-09-04T11:19:57.820Z,43.60
2017-09-04T11:22:25.257Z,42.70
2017-09-04T11:24:52.710Z,42.70
2017-09-04T11:27:20.173Z,40.70
2017-09-04T11:29:47.613Z,42.40
2017-09-04T11:32:15.067Z,41.40
2017-09-04T11:34:42.496Z,41.50
2017-09-04T11:37:09.979Z,42.10
2017-09-04T11:39:37.413Z,43.00
2017-09-04T11:42:04.844Z,40.60
2017-09-04T11:44:32.320Z,42.80
2017-09-04T11:46:59.752Z,43.20
2017-09-04T11:49:27.208Z,42.50
2017-09-04T11:51:54.645Z,42.30
2017-09-04T11:54:22.112Z,40.70
2017-09-04T11:56:49.551Z,41.60
2017-09-04T11:59:16.999Z,42.30
2017-09-04T12:01:44.440Z,43.40
2017-09-04T12:04:11.916Z,43.80
2017-09-04T12:06:39.414Z,43.00
2017-09-04T12:09:06.856Z,42.90
2017-09-04T12:11:34.340Z,42.80
2017-09-04T12:14:01.956Z,43.80
2017-09-04T12:16:30.116Z,42.70
2017-09-04T12:18:58.088Z,42.10
2017-09-04T12:21:25.536Z,42.10
2017-09-04T12:23:53.018Z,43.50
2017-09-04T12:26:20.447Z,43.80
2017-09-04T12:28:47.897Z,42.90
2017-09-04T12:31:15.354Z,42.20
2017-09-04T12:33:42.783Z,42.00
2017-09-04T12:36:10.236Z,41.60
2017-09-04T12:38:37.679Z,40.80
2017-09-04T12:41:05.146Z,40.60
2017-09-04T12:43:32.614Z,39.90
2017-09-04T12:46:00.085Z,39.50
2017-09-04T12:48:27.520Z,39.70
2017-09-04T12:50:54.965Z,41.30
2017-09-04T12:53:22.436Z,41.90
2017-09-04T12:55:49.952Z,42.00
2017-09-04T12:58:17.387Z,42.60
2017-09-04T13:00:44.828Z,42.80
2017-09-04T13:03:12.276Z,43.10
2017-09-04T13:05:39.718Z,41.80
2017-09-04T13:08:07.222Z,42.00
2017-09-04T13:10:40.440Z,41.40
2017-09-04T13:13:29.478Z,41.50
2017-09-04T13:16:15.779Z,41.50
2017-09-04T13:18:48.795Z,41.40
2017-09-04T13:21:22.048Z,41.40
2017-09-04T13:24:04.368Z,40.60
2017-09-04T13:26:37.625Z,40.30
2017-09-04T13:29:10.796Z,40.60
2017-09-04T13:31:43.897Z,38.70
2017-09-04T13:34:30.139Z,39.50
2017-09-04T13:37:17.300Z,40.50
2017-09-04T13:39:51.368Z,40.90
2017-09-04T13:42:24.651Z,40.90
2017-09-04T13:44:57.700Z,40.80
2017-09-04T13:47:44.998Z,40.10
2017-09-04T13:50:18.087Z,41.40
2017-09-04T13:52:51.286Z,39.70
2017-09-04T13:55:21.559Z,39.10
2017-09-04T13:57:54.715Z,38.30
2017-09-04T14:00:40.908Z,40.10
2017-09-04T14:03:21.056Z,39.00
2017-09-04T14:06:04.309Z,38.50
2017-09-04T14:08:48.568Z,37.80
2017-09-04T14:11:21.615Z,37.50
2017-09-04T14:14:04.865Z,38.40
2017-09-04T14:16:50.974Z,37.70
2017-09-04T14:19:18.436Z,38.00
2017-09-04T14:21:45.886Z,38.70
2017-09-04T14:24:13.329Z,38.80
2017-09-04T14:26:40.791Z,39.70
2017-09-04T14:29:08.248Z,41.90
2017-09-04T14:31:35.700Z,43.80
2017-09-04T14:34:03.175Z,44.00
2017-09-04T14:36:30.611Z,43.50
2017-09-04T14:38:58.084Z,42.20
2017-09-04T14:41:25.514Z,42.30
2017-09-04T14:43:58.614Z,41.30
2017-09-04T14:46:29.661Z,39.70
2017-09-04T14:48:57.104Z,40.00
2017-09-04T14:51:25.328Z,41.60
2017-09-04T14:53:52.772Z,41.60
2017-09-04T14:56:20.990Z,43.20
2017-09-04T14:58:48.436Z,43.20
2017-09-04T15:01:15.911Z,42.60
2017-09-04T15:03:43.355Z,42.00
2017-09-04T15:06:10.863Z,42.40
2017-09-04T15:08:38.289Z,41.70
2017-09-04T15:11:05.720Z,41.80
2017-09-04T15:13:33.172Z,42.20
2017-09-04T15:16:00.621Z,42.20
2017-09-04T15:18:28.076Z,41.50
2017-09-04T15:20:55.541Z,41.10
2017-09-04T15:23:23.004Z,41.20
2017-09-04T15:25:50.451Z,41.50
2017-09-04T15:28:17.875Z,41.20
2017-09-04T15:30:45.324Z,42.70
2017-09-04T15:33:12.868Z,44.00
2017-09-04T15:35:40.327Z,43.70
2017-09-04T15:38:07.768Z,43.20
2017-09-04T15:40:35.205Z,43.10
2017-09-04T15:43:02.654Z,44.10
2017-09-04T15:45:30.213Z,44.50
2017-09-04T15:47:57.679Z,44.60
2017-09-04T15:50:25.117Z,45.00
2017-09-04T15:52:52.551Z,45.10
2017-09-04T15:55:20.016Z,45.60
2017-09-04T15:57:48.167Z,46.70
2017-09-04T16:00:15.742Z,47.60
2017-09-04T16:02:43.160Z,47.70
2017-09-04T16:05:10.620Z,48.40
2017-09-04T16:07:40.577Z,48.30
2017-09-04T16:10:08.507Z,48.90
2017-09-04T16:12:39.431Z,48.60
2017-09-04T16:15:16.801Z,49.10
2017-09-04T16:17:44.252Z,49.40
2017-09-04T16:20:13.272Z,51.20
2017-09-04T16:22:41.177Z,51.20
2017-09-04T16:25:13.423Z,52.10
2017-09-04T16:27:41.335Z,52.80
2017-09-04T16:30:24.588Z,53.40
2017-09-04T16:32:55.668Z,53.90
2017-09-04T16:35:23.720Z,54.10
2017-09-04T16:38:02.874Z,54.40
2017-09-04T16:40:30.331Z,54.80
2017-09-04T16:42:58.262Z,55.20
2017-09-04T16:45:43.470Z,55.70
2017-09-04T16:48:10.909Z,56.30
2017-09-04T16:50:38.350Z,56.80
2017-09-04T16:53:05.793Z,57.20
2017-09-04T16:55:48.976Z,57.30
2017-09-04T16:58:16.443Z,57.50
2017-09-04T17:00:43.887Z,58.30
2017-09-04T17:03:11.330Z,57.90
2017-09-04T17:05:38.771Z,58.10
2017-09-04T17:08:06.256Z,58.60
2017-09-04T17:10:38.328Z,58.60
2017-09-04T17:13:05.800Z,59.00
2017-09-04T17:15:33.259Z,59.20
2017-09-04T17:18:02.587Z,59.40
2017-09-04T17:20:33.660Z,59.10
2017-09-04T17:23:01.125Z,59.50
2017-09-04T17:25:28.564Z,58.60
2017-09-04T17:27:56.037Z,59.00
2017-09-04T17:30:24.361Z,58.90
2017-09-04T17:32:51.798Z,59.30
2017-09-04T17:35:19.277Z,59.50
2017-09-04T17:37:46.746Z,59.90
2017-09-04T17:40:14.200Z,60.90
2017-09-04T17:42:41.664Z,60.10
2017-09-04T17:45:09.111Z,60.80
2017-09-04T17:47:36.693Z,61.70
2017-09-04T17:50:04.166Z,62.10
2017-09-04T17:52:31.594Z,62.40
2017-09-04T17:54:59.046Z,62.40
2017-09-04T17:57:26.499Z,62.80
2017-09-04T17:59:54.827Z,63.30
2017-09-04T18:02:22.847Z,63.80
2017-09-04T18:04:50.296Z,64.50
2017-09-04T18:07:17.732Z,65.20
2017-09-04T18:09:45.233Z,65.90
2017-09-04T18:12:12.661Z,66.20
2017-09-04T18:14:40.121Z,67.00
2017-09-04T18:17:07.604Z,67.40
2017-09-04T18:19:35.106Z,67.80
2017-09-04T18:22:02.565Z,68.40
2017-09-04T18:24:30.959Z,68.50
2017-09-04T18:26:58.420Z,68.80
2017-09-04T18:29:25.919Z,69.10
2017-09-04T18:31:53.404Z,68.40
2017-09-04T18:34:20.863Z,67.80
2017-09-04T18:36:48.296Z,67.80
2017-09-04T18:39:15.772Z,67.80
2017-09-04T18:41:43.208Z,67.60
2017-09-04T18:44:10.737Z,68.00
2017-09-04T18:46:38.231Z,68.20
2017-09-04T18:49:05.692Z,68.00
2017-09-04T18:51:33.195Z,68.30
2017-09-04T18:54:00.781Z,68.70
2017-09-04T18:56:28.238Z,69.70
2017-09-04T18:58:55.720Z,69.20
2017-09-04T19:01:23.204Z,69.50
2017-09-04T19:03:50.681Z,69.80
2017-09-04T19:06:18.228Z,70.20
2017-09-04T19:08:45.737Z,70.40
2017-09-04T19:11:13.225Z,71.00
2017-09-04T19:13:40.747Z,71.20
2017-09-04T19:16:08.275Z,71.50
2017-09-04T19:18:35.759Z,71.40
2017-09-04T19:21:03.233Z,71.50
2017-09-04T19:23:30.699Z,71.80
2017-09-04T19:25:58.234Z,72.10
2017-09-04T19:28:25.702Z,72.10
2017-09-04T19:30:53.175Z,71.60
2017-09-04T19:33:20.619Z,71.10
2017-09-04T19:35:48.084Z,71.40
2017-09-04T19:38:15.564Z,71.70
2017-09-04T19:40:43.011Z,71.50
2017-09-04T19:43:10.476Z,71.50
2017-09-04T19:45:38.577Z,71.70
2017-09-04T19:48:06.034Z,71.70
2017-09-04T19:50:33.527Z,71.40
2017-09-04T19:53:01.012Z,71.50
2017-09-04T19:55:28.449Z,70.90
2017-09-04T19:57:55.907Z,71.40
2017-09-04T20:00:23.361Z,71.30
2017-09-04T20:02:50.783Z,71.80
2017-09-04T20:05:18.250Z,72.00
2017-09-04T20:07:45.705Z,72.30
2017-09-04T20:10:13.180Z,71.90
2017-09-04T20:12:40.651Z,72.00
2017-09-04T20:15:08.108Z,72.20
2017-09-04T20:17:35.562Z,72.50
2017-09-04T20:20:03.019Z,71.90
2017-09-04T20:22:30.477Z,71.80
2017-09-04T20:24:57.919Z,71.40
2017-09-04T20:27:25.404Z,71.60
2017-09-04T20:29:52.867Z,71.50
2017-09-04T20:32:20.421Z,72.60
2017-09-04T20:34:47.864Z,71.40
2017-09-04T20:37:15.358Z,71.60
2017-09-04T20:39:42.883Z,71.70
2017-09-04T20:42:10.423Z,71.70
2017-09-04T20:44:37.879Z,71.70
2017-09-04T20:47:05.339Z,71.80
2017-09-04T20:49:32.781Z,71.70
2017-09-04T20:52:01.019Z,71.80
2017-09-04T20:54:28.463Z,71.70
2017-09-04T20:56:55.975Z,71.40
2017-09-04T20:59:23.431Z,71.80
2017-09-04T21:01:50.907Z,72.10
2017-09-04T21:04:18.336Z,72.60
2017-09-04T21:06:45.775Z,72.70
2017-09-04T21:09:13.235Z,72.90
2017-09-04T21:11:40.683Z,73.60
2017-09-04T21:14:08.147Z,73.80
2017-09-04T21:16:35.599Z,74.20
2017-09-04T21:19:03.800Z,75.10
2017-09-04T21:21:32.028Z,75.10
2017-09-04T21:23:59.485Z,75.00
2017-09-04T21:26:26.950Z,75.10
2017-09-04T21:28:54.490Z,75.00
2017-09-04T21:31:21.942Z,75.20
2017-09-04T21:33:49.381Z,75.40
2017-09-04T21:36:16.827Z,75.30
2017-09-04T21:38:45.053Z,75.60
2017-09-04T21:41:12.494Z,75.30
2017-09-04T21:43:40.075Z,76.10
2017-09-04T21:46:07.525Z,75.80
2017-09-04T21:48:34.991Z,76.20
2017-09-04T21:51:02.440Z,76.60
2017-09-04T21:53:30.140Z,77.30
2017-09-04T21:55:57.580Z,77.50
2017-09-04T21:58:25.026Z,78.00
2017-09-04T22:00:52.492Z,77.80
2017-09-04T22:03:19.930Z,78.00
2017-09-04T22:05:47.700Z,78.40
2017-09-04T22:08:16.022Z,79.10
2017-09-04T22:10:43.459Z,79.80
2017-09-04T22:13:10.917Z,80.70
2017-09-04T22:15:38.424Z,81.30
2017-09-04T22:18:05.900Z,81.60
2017-09-04T22:20:33.334Z,81.80
2017-09-04T22:23:00.793Z,82.00
2017-09-04T22:25:28.280Z,82.20
2017-09-04T22:27:55.729Z,81.90
2017-09-04T22:30:23.206Z,82.40
2017-09-04T22:32:50.617Z,82.50
2017-09-04T22:35:18.063Z,82.70
2017-09-04T22:37:45.568Z,83.00
2017-09-04T22:40:13.015Z,83.50
2017-09-04T22:42:40.455Z,83.60
2017-09-04T22:45:07.900Z,83.30
2017-09-04T22:47:35.363Z,83.40
2017-09-04T22:50:02.825Z,84.00
2017-09-04T22:52:31.050Z,84.90
2017-09-04T22:54:58.487Z,84.90
2017-09-04T22:57:25.936Z,85.60
2017-09-04T22:59:53.372Z,86.10
2017-09-04T23:02:20.831Z,86.60
2017-09-04T23:04:48.294Z,86.70
2017-09-04T23:07:15.728Z,86.50
2017-09-04T23:09:43.184Z,86.80
2017-09-04T23:12:10.623Z,87.20
2017-09-04T23:14:38.083Z,87.00
2017-09-04T23:17:05.528Z,86.80
2017-09-04T23:19:33.000Z,87.00
2017-09-04T23:22:00.599Z,87.40
2017-09-04T23:24:28.030Z,87.70
2017-09-04T23:26:55.473Z,88.10
2017-09-04T23:29:22.918Z,88.20
2017-09-04T23:31:50.377Z,88.50
2017-09-04T23:34:17.839Z,89.10
2017-09-04T23:36:45.270Z,89.30
2017-09-04T23:39:12.728Z,90.00
2017-09-04T23:41:40.174Z,90.20
2017-09-04T23:44:07.635Z,90.40
2017-09-04T23:46:35.080Z,90.40
2017-09-04T23:49:02.560Z,90.40
2017-09-04T23:51:30.003Z,90.50
2017-09-04T23:53:57.476Z,90.50
2017-09-04T23:56:24.920Z,90.40
2017-09-04T23:58:52.381Z,90.40
